Sign-in with your pilot id or email, or register

ICAO: LOWI Name / Country: airport Innsbruck / Austria
Latitude: 47.2602 Longitude: 11.344
Total Arrivals:
Strict Standards: Non-static method AirportData::getarrflights() should not be called statically, assuming $this from incompatible context in /var/www/customers/vh-7192/web/home/phpvms/core/templates/airport_info.tpl on line 18
0
Total Departures:
Strict Standards: Non-static method AirportData::getdeptflights() should not be called statically, assuming $this from incompatible context in /var/www/customers/vh-7192/web/home/phpvms/core/templates/airport_info.tpl on line 21
1
Latest Arrival: (-) Latest Departure: MTA11P (LOWI-LHSM) Tibor Berces
Metar: LOWI 281720Z 14003KT 120V180 9999 FEW015 SCT050 BKN070 09/07 Q1014 NOSIG
More info

Charts for LOWI


NOTAM


Warning: file_get_contents(http://api.vateud.net/notams/LOWI.json): failed to open stream: Redirection limit reached, aborting in /var/www/customers/vh-7192/web/home/phpvms/core/common/NOTAMSData.class.php on line 18

Warning: Invalid argument supplied for foreach() in /var/www/customers/vh-7192/web/home/phpvms/core/common/NOTAMSData.class.php on line 22

airport Innsbruck